sensor_id;sensor_type;location;lat;lon;timestamp;P1;P2;P0
68698;PMS7003;55680;48.850;2.310;2023-04-16T00:01:47;0.00;0.00;0.00
68698;PMS7003;55680;48.850;2.310;2023-04-16T00:04:12;5.50;1.00;0.00
68698;PMS7003;55680;48.850;2.310;2023-04-16T00:06:37;0.00;0.00;0.00
68698;PMS7003;55680;48.850;2.310;2023-04-16T00:09:03;0.00;0.00;0.00
68698;PMS7003;55680;48.850;2.310;2023-04-16T00:11:28;0.75;0.00;0.00
68698;PMS7003;55680;48.850;2.310;2023-04-16T00:13:53;3.00;1.00;0.00
68698;PMS7003;55680;48.850;2.310;2023-04-16T00:16:19;3.00;0.00;0.00
68698;PMS7003;55680;48.850;2.310;2023-04-16T00:18:44;5.00;5.00;3.75
68698;PMS7003;55680;48.850;2.310;2023-04-16T00:21:10;0.25;0.25;0.00
68698;PMS7003;55680;48.850;2.310;2023-04-16T00:23:36;0.00;0.00;0.00
68698;PMS7003;55680;48.850;2.310;2023-04-16T00:26:02;0.00;0.00;0.00
68698;PMS7003;55680;48.850;2.310;2023-04-16T00:28:27;0.00;0.00;0.00
68698;PMS7003;55680;48.850;2.310;2023-04-16T00:30:53;0.50;0.00;0.00
68698;PMS7003;55680;48.850;2.310;2023-04-16T00:33:19;4.00;3.00;3.00
68698;PMS7003;55680;48.850;2.310;2023-04-16T00:35:45;6.50;4.25;2.75
68698;PMS7003;55680;48.850;2.310;2023-04-16T00:38:11;5.25;5.25;3.50
68698;PMS7003;55680;48.850;2.310;2023-04-16T00:40:36;0.00;0.00;0.00
68698;PMS7003;55680;48.850;2.310;2023-04-16T00:43:02;0.00;0.00;0.00
68698;PMS7003;55680;48.850;2.310;2023-04-16T00:45:27;0.00;0.00;0.00
68698;PMS7003;55680;48.850;2.310;2023-04-16T00:47:53;0.75;0.75;0.00
68698;PMS7003;55680;48.850;2.310;2023-04-16T00:50:19;0.00;0.00;0.00
68698;PMS7003;55680;48.850;2.310;2023-04-16T00:52:46;0.00;0.00;0.00
68698;PMS7003;55680;48.850;2.310;2023-04-16T00:55:11;0.00;0.00;0.00
68698;PMS7003;55680;48.850;2.310;2023-04-16T00:57:37;1.50;0.00;0.00
68698;PMS7003;55680;48.850;2.310;2023-04-16T01:00:03;0.00;0.00;0.00
68698;PMS7003;55680;48.850;2.310;2023-04-16T01:02:29;0.00;0.00;0.00
68698;PMS7003;55680;48.850;2.310;2023-04-16T01:04:55;0.25;0.00;0.00
68698;PMS7003;55680;48.850;2.310;2023-04-16T01:07:20;5.75;0.00;0.00
68698;PMS7003;55680;48.850;2.310;2023-04-16T01:09:45;0.50;0.50;0.00
68698;PMS7003;55680;48.850;2.310;2023-04-16T01:12:11;0.00;0.00;0.00
68698;PMS7003;55680;48.850;2.310;2023-04-16T01:14:37;0.00;0.00;0.00
68698;PMS7003;55680;48.850;2.310;2023-04-16T01:17:02;3.50;0.00;0.00
68698;PMS7003;55680;48.850;2.310;2023-04-16T01:19:28;0.00;0.00;0.00
68698;PMS7003;55680;48.850;2.310;2023-04-16T01:21:55;0.50;0.00;0.00
68698;PMS7003;55680;48.850;2.310;2023-04-16T01:24:21;1.75;0.00;0.00
68698;PMS7003;55680;48.850;2.310;2023-04-16T01:26:46;5.75;4.25;2.50
68698;PMS7003;55680;48.850;2.310;2023-04-16T01:29:12;2.00;1.00;0.00
68698;PMS7003;55680;48.850;2.310;2023-04-16T01:31:37;1.00;0.00;0.00
68698;PMS7003;55680;48.850;2.310;2023-04-16T01:34:02;0.25;0.00;0.00
68698;PMS7003;55680;48.850;2.310;2023-04-16T01:36:28;3.00;0.50;0.00
68698;PMS7003;55680;48.850;2.310;2023-04-16T01:38:53;0.00;0.00;0.00
68698;PMS7003;55680;48.850;2.310;2023-04-16T01:41:18;0.50;0.50;0.00
68698;PMS7003;55680;48.850;2.310;2023-04-16T01:43:44;1.00;0.00;0.00
68698;PMS7003;55680;48.850;2.310;2023-04-16T01:46:28;0.00;0.00;0.00
68698;PMS7003;55680;48.850;2.310;2023-04-16T01:48:55;0.00;0.00;0.00
68698;PMS7003;55680;48.850;2.310;2023-04-16T01:51:21;0.75;0.75;0.00
68698;PMS7003;55680;48.850;2.310;2023-04-16T01:53:48;0.00;0.00;0.00
68698;PMS7003;55680;48.850;2.310;2023-04-16T01:56:13;2.75;0.00;0.00
68698;PMS7003;55680;48.850;2.310;2023-04-16T01:58:39;0.75;0.75;0.00
68698;PMS7003;55680;48.850;2.310;2023-04-16T02:01:06;2.00;0.50;0.00
68698;PMS7003;55680;48.850;2.310;2023-04-16T02:03:32;0.00;0.00;0.00
68698;PMS7003;55680;48.850;2.310;2023-04-16T02:05:57;0.00;0.00;0.00
68698;PMS7003;55680;48.850;2.310;2023-04-16T02:08:23;0.00;0.00;0.00
68698;PMS7003;55680;48.850;2.310;2023-04-16T02:10:48;0.00;0.00;0.00
68698;PMS7003;55680;48.850;2.310;2023-04-16T02:13:14;0.00;0.00;0.00
68698;PMS7003;55680;48.850;2.310;2023-04-16T02:15:44;0.00;0.00;0.00
68698;PMS7003;55680;48.850;2.310;2023-04-16T02:18:12;1.00;1.00;0.25
68698;PMS7003;55680;48.850;2.310;2023-04-16T02:20:39;0.75;0.75;0.00
68698;PMS7003;55680;48.850;2.310;2023-04-16T02:23:05;0.00;0.00;0.00
68698;PMS7003;55680;48.850;2.310;2023-04-16T02:25:30;0.25;0.25;0.00
68698;PMS7003;55680;48.850;2.310;2023-04-16T02:27:56;0.00;0.00;0.00
68698;PMS7003;55680;48.850;2.310;2023-04-16T02:30:22;0.50;0.50;0.50
68698;PMS7003;55680;48.850;2.310;2023-04-16T02:32:48;0.50;0.50;0.25
68698;PMS7003;55680;48.850;2.310;2023-04-16T02:35:13;0.50;0.50;0.25
68698;PMS7003;55680;48.850;2.310;2023-04-16T02:37:39;4.25;1.00;0.00
68698;PMS7003;55680;48.850;2.310;2023-04-16T02:40:05;1.00;1.00;0.00
68698;PMS7003;55680;48.850;2.310;2023-04-16T02:42:30;1.00;0.00;0.00
68698;PMS7003;55680;48.850;2.310;2023-04-16T02:44:56;0.00;0.00;0.00
68698;PMS7003;55680;48.850;2.310;2023-04-16T02:47:21;1.00;1.00;0.00
68698;PMS7003;55680;48.850;2.310;2023-04-16T02:49:46;0.00;0.00;0.00
68698;PMS7003;55680;48.850;2.310;2023-04-16T02:52:12;1.00;1.00;0.00
68698;PMS7003;55680;48.850;2.310;2023-04-16T02:54:37;2.50;2.50;0.50
68698;PMS7003;55680;48.850;2.310;2023-04-16T02:57:03;3.00;3.00;1.00
68698;PMS7003;55680;48.850;2.310;2023-04-16T02:59:29;1.25;0.50;0.00
68698;PMS7003;55680;48.850;2.310;2023-04-16T03:01:55;0.25;0.25;0.00
68698;PMS7003;55680;48.850;2.310;2023-04-16T03:04:20;6.00;1.00;0.00
68698;PMS7003;55680;48.850;2.310;2023-04-16T03:06:46;0.00;0.00;0.00
68698;PMS7003;55680;48.850;2.310;2023-04-16T03:09:11;1.00;1.00;0.00
68698;PMS7003;55680;48.850;2.310;2023-04-16T03:11:37;1.00;1.00;0.00
68698;PMS7003;55680;48.850;2.310;2023-04-16T03:14:02;0.00;0.00;0.00
68698;PMS7003;55680;48.850;2.310;2023-04-16T03:16:27;0.00;0.00;0.00
68698;PMS7003;55680;48.850;2.310;2023-04-16T03:18:53;2.50;0.00;0.00
68698;PMS7003;55680;48.850;2.310;2023-04-16T03:21:18;0.00;0.00;0.00
68698;PMS7003;55680;48.850;2.310;2023-04-16T03:23:43;1.75;1.00;0.50
68698;PMS7003;55680;48.850;2.310;2023-04-16T03:26:09;1.00;0.00;0.00
68698;PMS7003;55680;48.850;2.310;2023-04-16T03:28:34;1.00;0.00;0.00
68698;PMS7003;55680;48.850;2.310;2023-04-16T03:31:00;0.00;0.00;0.00
68698;PMS7003;55680;48.850;2.310;2023-04-16T03:33:25;1.00;0.00;0.00
68698;PMS7003;55680;48.850;2.310;2023-04-16T03:35:54;0.00;0.00;0.00
68698;PMS7003;55680;48.850;2.310;2023-04-16T03:38:23;8.00;5.00;4.50
68698;PMS7003;55680;48.850;2.310;2023-04-16T03:40:49;0.00;0.00;0.00
68698;PMS7003;55680;48.850;2.310;2023-04-16T03:43:15;0.00;0.00;0.00
68698;PMS7003;55680;48.850;2.310;2023-04-16T03:45:44;2.33;0.67;0.00
68698;PMS7003;55680;48.850;2.310;2023-04-16T03:48:09;6.25;2.50;0.00
68698;PMS7003;55680;48.850;2.310;2023-04-16T03:50:35;1.00;1.00;0.00
68698;PMS7003;55680;48.850;2.310;2023-04-16T03:53:00;0.00;0.00;0.00
68698;PMS7003;55680;48.850;2.310;2023-04-16T03:55:25;0.75;0.00;0.00
68698;PMS7003;55680;48.850;2.310;2023-04-16T03:57:51;0.00;0.00;0.00
68698;PMS7003;55680;48.850;2.310;2023-04-16T04:00:17;1.00;1.00;0.00
68698;PMS7003;55680;48.850;2.310;2023-04-16T04:02:42;1.00;1.00;0.00
68698;PMS7003;55680;48.850;2.310;2023-04-16T04:05:07;3.00;1.00;0.00
68698;PMS7003;55680;48.850;2.310;2023-04-16T04:07:33;0.00;0.00;0.00
68698;PMS7003;55680;48.850;2.310;2023-04-16T04:09:58;1.00;1.00;0.00
68698;PMS7003;55680;48.850;2.310;2023-04-16T04:12:23;0.00;0.00;0.00
68698;PMS7003;55680;48.850;2.310;2023-04-16T04:14:49;2.00;0.00;0.00
68698;PMS7003;55680;48.850;2.310;2023-04-16T04:17:14;0.00;0.00;0.00
68698;PMS7003;55680;48.850;2.310;2023-04-16T04:19:40;0.00;0.00;0.00
68698;PMS7003;55680;48.850;2.310;2023-04-16T04:22:05;0.50;0.00;0.00
68698;PMS7003;55680;48.850;2.310;2023-04-16T04:24:31;0.75;0.00;0.00
68698;PMS7003;55680;48.850;2.310;2023-04-16T04:26:56;0.00;0.00;0.00
68698;PMS7003;55680;48.850;2.310;2023-04-16T04:29:22;1.00;1.00;0.00
68698;PMS7003;55680;48.850;2.310;2023-04-16T04:31:47;6.00;4.00;1.50
68698;PMS7003;55680;48.850;2.310;2023-04-16T04:34:12;4.75;3.00;1.00
68698;PMS7003;55680;48.850;2.310;2023-04-16T04:36:38;3.25;1.00;1.00
68698;PMS7003;55680;48.850;2.310;2023-04-16T04:39:03;5.50;5.50;1.50
68698;PMS7003;55680;48.850;2.310;2023-04-16T04:41:29;1.50;0.00;0.00
68698;PMS7003;55680;48.850;2.310;2023-04-16T04:43:54;3.50;3.00;0.00
68698;PMS7003;55680;48.850;2.310;2023-04-16T04:46:19;16.00;15.00;10.00
68698;PMS7003;55680;48.850;2.310;2023-04-16T04:48:45;5.00;3.00;0.25
68698;PMS7003;55680;48.850;2.310;2023-04-16T04:51:10;5.50;3.50;1.00
68698;PMS7003;55680;48.850;2.310;2023-04-16T04:53:36;7.00;4.00;0.33
68698;PMS7003;55680;48.850;2.310;2023-04-16T04:56:01;4.67;4.00;3.00
68698;PMS7003;55680;48.850;2.310;2023-04-16T04:58:26;9.75;7.75;4.50
68698;PMS7003;55680;48.850;2.310;2023-04-16T05:00:52;4.33;3.00;3.00
68698;PMS7003;55680;48.850;2.310;2023-04-16T05:03:20;23.67;19.00;13.00
68698;PMS7003;55680;48.850;2.310;2023-04-16T05:05:46;12.75;4.25;1.00
68698;PMS7003;55680;48.850;2.310;2023-04-16T05:08:11;5.50;4.00;3.00
68698;PMS7003;55680;48.850;2.310;2023-04-16T05:10:37;5.50;3.75;1.00
68698;PMS7003;55680;48.850;2.310;2023-04-16T05:13:02;4.00;4.00;3.00
68698;PMS7003;55680;48.850;2.310;2023-04-16T05:15:27;8.50;5.50;3.00
68698;PMS7003;55680;48.850;2.310;2023-04-16T05:17:53;7.50;6.00;3.50
68698;PMS7003;55680;48.850;2.310;2023-04-16T05:20:20;8.25;5.50;3.75
68698;PMS7003;55680;48.850;2.310;2023-04-16T05:22:49;7.75;5.50;1.00
68698;PMS7003;55680;48.850;2.310;2023-04-16T05:25:15;7.00;7.00;4.00
68698;PMS7003;55680;48.850;2.310;2023-04-16T05:27:41;22.75;21.25;15.75
68698;PMS7003;55680;48.850;2.310;2023-04-16T05:30:07;12.00;5.50;3.00
68698;PMS7003;55680;48.850;2.310;2023-04-16T05:32:32;9.00;6.00;3.50
68698;PMS7003;55680;48.850;2.310;2023-04-16T05:34:58;8.50;6.75;3.00
68698;PMS7003;55680;48.850;2.310;2023-04-16T05:37:23;9.50;5.50;3.75
68698;PMS7003;55680;48.850;2.310;2023-04-16T05:39:49;4.00;4.00;3.25
68698;PMS7003;55680;48.850;2.310;2023-04-16T05:42:14;7.50;6.25;4.00
68698;PMS7003;55680;48.850;2.310;2023-04-16T05:44:40;6.50;5.00;1.00
68698;PMS7003;55680;48.850;2.310;2023-04-16T05:47:05;3.00;3.00;2.50
68698;PMS7003;55680;48.850;2.310;2023-04-16T05:49:33;7.50;7.00;5.00
68698;PMS7003;55680;48.850;2.310;2023-04-16T05:51:58;5.50;4.50;3.00
68698;PMS7003;55680;48.850;2.310;2023-04-16T05:54:24;5.00;5.00;3.00
68698;PMS7003;55680;48.850;2.310;2023-04-16T05:56:49;4.00;4.00;3.00
68698;PMS7003;55680;48.850;2.310;2023-04-16T05:59:14;7.50;4.00;3.00
68698;PMS7003;55680;48.850;2.310;2023-04-16T06:01:40;4.00;4.00;3.00
68698;PMS7003;55680;48.850;2.310;2023-04-16T06:04:05;4.50;4.50;3.00
68698;PMS7003;55680;48.850;2.310;2023-04-16T06:06:30;3.00;3.00;2.00
68698;PMS7003;55680;48.850;2.310;2023-04-16T06:08:56;7.67;3.00;2.33
68698;PMS7003;55680;48.850;2.310;2023-04-16T06:11:21;3.00;1.00;0.25
68698;PMS7003;55680;48.850;2.310;2023-04-16T06:13:46;1.50;1.50;1.00
68698;PMS7003;55680;48.850;2.310;2023-04-16T06:16:12;1.00;1.00;0.25
68698;PMS7003;55680;48.850;2.310;2023-04-16T06:18:37;3.00;3.00;1.00
68698;PMS7003;55680;48.850;2.310;2023-04-16T06:21:03;4.00;4.00;3.00
68698;PMS7003;55680;48.850;2.310;2023-04-16T06:23:28;6.75;4.50;3.00
68698;PMS7003;55680;48.850;2.310;2023-04-16T06:25:54;1.00;1.00;1.00
68698;PMS7003;55680;48.850;2.310;2023-04-16T06:28:20;6.25;1.00;1.00
68698;PMS7003;55680;48.850;2.310;2023-04-16T06:30:45;14.00;6.00;4.00
68698;PMS7003;55680;48.850;2.310;2023-04-16T06:33:11;10.75;7.00;4.00
68698;PMS7003;55680;48.850;2.310;2023-04-16T06:35:36;5.50;3.00;2.00
68698;PMS7003;55680;48.850;2.310;2023-04-16T06:38:01;7.00;6.00;4.50
68698;PMS7003;55680;48.850;2.310;2023-04-16T06:40:27;4.00;3.00;2.50
68698;PMS7003;55680;48.850;2.310;2023-04-16T06:42:52;3.00;3.00;1.00
68698;PMS7003;55680;48.850;2.310;2023-04-16T06:45:18;7.50;5.50;3.00
68698;PMS7003;55680;48.850;2.310;2023-04-16T06:47:43;2.00;0.50;0.50
68698;PMS7003;55680;48.850;2.310;2023-04-16T06:50:09;1.00;1.00;1.00
68698;PMS7003;55680;48.850;2.310;2023-04-16T06:52:34;3.75;3.00;1.00
68698;PMS7003;55680;48.850;2.310;2023-04-16T06:55:00;9.25;6.25;3.75
68698;PMS7003;55680;48.850;2.310;2023-04-16T06:57:28;4.00;2.50;0.25
68698;PMS7003;55680;48.850;2.310;2023-04-16T06:59:53;8.25;4.50;3.00
68698;PMS7003;55680;48.850;2.310;2023-04-16T07:02:19;7.00;3.33;2.33
68698;PMS7003;55680;48.850;2.310;2023-04-16T07:04:44;7.50;7.00;4.00
68698;PMS7003;55680;48.850;2.310;2023-04-16T07:07:10;15.25;12.25;6.75
68698;PMS7003;55680;48.850;2.310;2023-04-16T07:09:35;3.75;3.00;1.00
68698;PMS7003;55680;48.850;2.310;2023-04-16T07:12:00;7.00;6.00;3.50
68698;PMS7003;55680;48.850;2.310;2023-04-16T07:14:26;6.50;3.00;3.00
68698;PMS7003;55680;48.850;2.310;2023-04-16T07:16:51;12.50;7.00;4.50
68698;PMS7003;55680;48.850;2.310;2023-04-16T07:19:16;9.00;6.50;4.00
68698;PMS7003;55680;48.850;2.310;2023-04-16T07:21:42;7.00;4.50;3.50
68698;PMS7003;55680;48.850;2.310;2023-04-16T07:24:08;8.50;6.75;3.50
68698;PMS7003;55680;48.850;2.310;2023-04-16T07:26:35;8.50;4.50;3.50
68698;PMS7003;55680;48.850;2.310;2023-04-16T07:29:00;6.00;6.00;3.50
68698;PMS7003;55680;48.850;2.310;2023-04-16T07:31:25;12.50;5.50;3.75
68698;PMS7003;55680;48.850;2.310;2023-04-16T07:33:51;3.00;3.00;2.50
68698;PMS7003;55680;48.850;2.310;2023-04-16T07:36:16;7.50;7.50;4.00
68698;PMS7003;55680;48.850;2.310;2023-04-16T07:38:42;8.00;6.00;4.00
68698;PMS7003;55680;48.850;2.310;2023-04-16T07:41:07;24.00;17.75;12.00
68698;PMS7003;55680;48.850;2.310;2023-04-16T07:43:33;6.50;6.50;3.00
68698;PMS7003;55680;48.850;2.310;2023-04-16T07:45:58;18.00;14.00;7.50
68698;PMS7003;55680;48.850;2.310;2023-04-16T07:48:23;16.25;12.00;8.75
68698;PMS7003;55680;48.850;2.310;2023-04-16T07:50:49;23.50;20.00;14.50
68698;PMS7003;55680;48.850;2.310;2023-04-16T07:53:14;19.75;16.50;11.00
68698;PMS7003;55680;48.850;2.310;2023-04-16T07:55:40;16.25;13.50;7.25
68698;PMS7003;55680;48.850;2.310;2023-04-16T07:58:05;18.75;18.75;12.00
68698;PMS7003;55680;48.850;2.310;2023-04-16T08:00:33;19.25;15.00;10.50
68698;PMS7003;55680;48.850;2.310;2023-04-16T08:02:58;20.00;17.50;10.25
68698;PMS7003;55680;48.850;2.310;2023-04-16T08:05:24;16.00;16.00;10.50
68698;PMS7003;55680;48.850;2.310;2023-04-16T08:07:49;14.75;13.00;8.00
68698;PMS7003;55680;48.850;2.310;2023-04-16T08:10:15;18.50;17.00;9.75
68698;PMS7003;55680;48.850;2.310;2023-04-16T08:12:40;22.75;19.50;13.00
68698;PMS7003;55680;48.850;2.310;2023-04-16T08:15:06;14.75;14.75;11.00
68698;PMS7003;55680;48.850;2.310;2023-04-16T08:17:31;16.75;11.75;7.75
68698;PMS7003;55680;48.850;2.310;2023-04-16T08:19:58;20.25;14.75;11.00
68698;PMS7003;55680;48.850;2.310;2023-04-16T08:22:24;21.50;19.00;12.00
68698;PMS7003;55680;48.850;2.310;2023-04-16T08:24:50;15.75;13.50;10.25
68698;PMS7003;55680;48.850;2.310;2023-04-16T08:27:15;18.25;15.25;10.75
68698;PMS7003;55680;48.850;2.310;2023-04-16T08:29:41;23.50;20.00;12.50
68698;PMS7003;55680;48.850;2.310;2023-04-16T08:32:06;15.00;14.00;8.00
68698;PMS7003;55680;48.850;2.310;2023-04-16T08:34:33;19.50;16.50;11.25
68698;PMS7003;55680;48.850;2.310;2023-04-16T08:36:59;19.75;14.50;10.50
68698;PMS7003;55680;48.850;2.310;2023-04-16T08:39:24;22.50;16.25;10.50
68698;PMS7003;55680;48.850;2.310;2023-04-16T08:41:49;23.25;20.00;13.00
68698;PMS7003;55680;48.850;2.310;2023-04-16T08:44:24;16.75;12.25;8.50
68698;PMS7003;55680;48.850;2.310;2023-04-16T08:46:51;14.75;14.00;8.75
68698;PMS7003;55680;48.850;2.310;2023-04-16T08:49:22;22.00;16.25;10.00
68698;PMS7003;55680;48.850;2.310;2023-04-16T08:51:49;16.75;15.25;10.00
68698;PMS7003;55680;48.850;2.310;2023-04-16T08:54:34;17.75;13.75;9.25
68698;PMS7003;55680;48.850;2.310;2023-04-16T08:57:09;14.75;13.25;8.00
68698;PMS7003;55680;48.850;2.310;2023-04-16T08:59:37;15.25;13.25;8.50
68698;PMS7003;55680;48.850;2.310;2023-04-16T09:02:04;15.00;13.25;9.75
68698;PMS7003;55680;48.850;2.310;2023-04-16T09:04:30;16.00;12.75;9.00
68698;PMS7003;55680;48.850;2.310;2023-04-16T09:06:57;16.50;11.50;8.25
68698;PMS7003;55680;48.850;2.310;2023-04-16T09:09:22;12.50;12.50;9.25
68698;PMS7003;55680;48.850;2.310;2023-04-16T09:11:50;17.50;17.25;10.50
68698;PMS7003;55680;48.850;2.310;2023-04-16T09:14:17;20.25;14.25;10.00
68698;PMS7003;55680;48.850;2.310;2023-04-16T09:16:42;14.25;12.50;9.00
68698;PMS7003;55680;48.850;2.310;2023-04-16T09:19:09;13.50;11.75;6.50
68698;PMS7003;55680;48.850;2.310;2023-04-16T09:21:35;14.00;9.50;7.75
68698;PMS7003;55680;48.850;2.310;2023-04-16T09:24:02;11.00;11.00;8.75
68698;PMS7003;55680;48.850;2.310;2023-04-16T09:26:27;12.75;11.75;8.00
68698;PMS7003;55680;48.850;2.310;2023-04-16T09:28:53;16.75;14.50;8.00
68698;PMS7003;55680;48.850;2.310;2023-04-16T09:31:19;18.75;12.75;9.25
68698;PMS7003;55680;48.850;2.310;2023-04-16T09:34:03;17.25;12.00;8.25
68698;PMS7003;55680;48.850;2.310;2023-04-16T09:36:30;15.00;11.50;7.00
68698;PMS7003;55680;48.850;2.310;2023-04-16T09:38:56;14.75;12.25;8.00
68698;PMS7003;55680;48.850;2.310;2023-04-16T09:41:24;12.00;12.00;9.00
68698;PMS7003;55680;48.850;2.310;2023-04-16T09:43:58;12.50;8.75;6.00
68698;PMS7003;55680;48.850;2.310;2023-04-16T09:46:44;15.50;14.00;10.00
68698;PMS7003;55680;48.850;2.310;2023-04-16T09:49:15;6.50;6.50;5.50
68698;PMS7003;55680;48.850;2.310;2023-04-16T09:51:43;10.25;10.00;7.00
68698;PMS7003;55680;48.850;2.310;2023-04-16T09:54:10;13.75;11.00;9.00
68698;PMS7003;55680;48.850;2.310;2023-04-16T09:56:40;14.75;12.25;7.50
68698;PMS7003;55680;48.850;2.310;2023-04-16T09:59:06;15.50;12.00;7.00
68698;PMS7003;55680;48.850;2.310;2023-04-16T10:01:33;12.75;9.75;7.00
68698;PMS7003;55680;48.850;2.310;2023-04-16T10:03:58;12.00;10.00;7.00
68698;PMS7003;55680;48.850;2.310;2023-04-16T10:06:23;11.50;11.00;8.00
68698;PMS7003;55680;48.850;2.310;2023-04-16T10:08:52;7.25;6.75;5.50
68698;PMS7003;55680;48.850;2.310;2023-04-16T10:11:20;10.25;10.25;6.75
68698;PMS7003;55680;48.850;2.310;2023-04-16T10:13:46;11.00;9.50;5.50
68698;PMS7003;55680;48.850;2.310;2023-04-16T10:16:12;9.50;8.50;6.75
68698;PMS7003;55680;48.850;2.310;2023-04-16T10:18:38;8.75;8.75;7.00
68698;PMS7003;55680;48.850;2.310;2023-04-16T10:21:04;8.00;8.00;6.25
68698;PMS7003;55680;48.850;2.310;2023-04-16T10:23:33;11.75;9.25;6.50
68698;PMS7003;55680;48.850;2.310;2023-04-16T10:25:59;9.00;9.00;5.75
68698;PMS7003;55680;48.850;2.310;2023-04-16T10:28:25;10.25;8.75;7.00
68698;PMS7003;55680;48.850;2.310;2023-04-16T10:30:53;6.75;6.75;5.00
68698;PMS7003;55680;48.850;2.310;2023-04-16T10:33:20;5.75;5.50;4.00
68698;PMS7003;55680;48.850;2.310;2023-04-16T10:35:46;11.50;9.25;7.00
68698;PMS7003;55680;48.850;2.310;2023-04-16T10:38:25;11.75;9.75;7.00
68698;PMS7003;55680;48.850;2.310;2023-04-16T10:41:01;12.00;10.50;7.75
68698;PMS7003;55680;48.850;2.310;2023-04-16T10:43:28;0.00;0.00;0.00
68698;PMS7003;55680;48.850;2.310;2023-04-16T10:45:54;8.00;7.75;5.75
68698;PMS7003;55680;48.850;2.310;2023-04-16T10:48:19;9.75;8.00;5.00
68698;PMS7003;55680;48.850;2.310;2023-04-16T10:50:54;7.00;5.00;2.75
68698;PMS7003;55680;48.850;2.310;2023-04-16T10:53:22;7.00;7.00;4.75
68698;PMS7003;55680;48.850;2.310;2023-04-16T10:55:56;10.00;10.00;6.25
68698;PMS7003;55680;48.850;2.310;2023-04-16T10:58:29;10.00;8.00;6.25
68698;PMS7003;55680;48.850;2.310;2023-04-16T11:00:57;13.75;10.00;7.00
68698;PMS7003;55680;48.850;2.310;2023-04-16T11:03:24;9.75;7.75;5.00
68698;PMS7003;55680;48.850;2.310;2023-04-16T11:05:49;9.00;6.25;4.50
68698;PMS7003;55680;48.850;2.310;2023-04-16T11:08:15;5.25;5.25;4.00
68698;PMS7003;55680;48.850;2.310;2023-04-16T11:10:40;7.75;7.75;5.00
68698;PMS7003;55680;48.850;2.310;2023-04-16T11:13:06;10.00;10.00;7.75
68698;PMS7003;55680;48.850;2.310;2023-04-16T11:15:32;16.75;15.25;12.50
68698;PMS7003;55680;48.850;2.310;2023-04-16T11:17:59;17.25;14.50;11.25
68698;PMS7003;55680;48.850;2.310;2023-04-16T11:20:25;10.75;7.50;6.50
68698;PMS7003;55680;48.850;2.310;2023-04-16T11:22:52;8.25;7.00;4.50
68698;PMS7003;55680;48.850;2.310;2023-04-16T11:25:19;5.00;5.00;4.00
68698;PMS7003;55680;48.850;2.310;2023-04-16T11:27:48;4.75;4.75;3.25
68698;PMS7003;55680;48.850;2.310;2023-04-16T11:30:14;8.25;6.50;3.75
68698;PMS7003;55680;48.850;2.310;2023-04-16T11:32:39;7.75;6.25;4.75
68698;PMS7003;55680;48.850;2.310;2023-04-16T11:35:17;6.50;5.50;3.75
68698;PMS7003;55680;48.850;2.310;2023-04-16T11:37:43;7.25;6.50;4.75
68698;PMS7003;55680;48.850;2.310;2023-04-16T11:40:09;6.25;6.25;5.00
68698;PMS7003;55680;48.850;2.310;2023-04-16T11:42:38;5.00;5.00;4.00
68698;PMS7003;55680;48.850;2.310;2023-04-16T11:45:05;5.50;5.50;4.00
68698;PMS7003;55680;48.850;2.310;2023-04-16T11:47:33;3.00;3.00;2.00
68698;PMS7003;55680;48.850;2.310;2023-04-16T11:50:20;5.00;3.00;2.75
68698;PMS7003;55680;48.850;2.310;2023-04-16T11:52:48;4.75;2.00;2.00
68698;PMS7003;55680;48.850;2.310;2023-04-16T11:55:14;6.50;5.00;3.75
68698;PMS7003;55680;48.850;2.310;2023-04-16T11:57:39;2.50;2.50;1.00
68698;PMS7003;55680;48.850;2.310;2023-04-16T12:00:05;6.25;3.00;2.00
68698;PMS7003;55680;48.850;2.310;2023-04-16T12:02:35;3.75;3.75;2.75
68698;PMS7003;55680;48.850;2.310;2023-04-16T12:05:05;3.75;2.75;2.00
68698;PMS7003;55680;48.850;2.310;2023-04-16T12:07:42;2.25;2.25;2.00
68698;PMS7003;55680;48.850;2.310;2023-04-16T12:10:08;5.25;5.25;3.75
68698;PMS7003;55680;48.850;2.310;2023-04-16T12:12:34;4.00;4.00;2.00
68698;PMS7003;55680;48.850;2.310;2023-04-16T12:15:00;4.00;4.00;3.00
68698;PMS7003;55680;48.850;2.310;2023-04-16T12:17:30;7.50;6.50;3.75
68698;PMS7003;55680;48.850;2.310;2023-04-16T12:19:56;3.50;3.00;2.00
68698;PMS7003;55680;48.850;2.310;2023-04-16T12:22:30;6.75;3.75;2.25
68698;PMS7003;55680;48.850;2.310;2023-04-16T12:25:02;4.75;3.25;2.25
68698;PMS7003;55680;48.850;2.310;2023-04-16T12:30:13;5.00;3.50;3.00
68698;PMS7003;55680;48.850;2.310;2023-04-16T12:32:40;7.00;4.00;2.25
68698;PMS7003;55680;48.850;2.310;2023-04-16T12:35:06;5.50;4.75;3.00
68698;PMS7003;55680;48.850;2.310;2023-04-16T12:37:33;3.50;3.50;2.00
68698;PMS7003;55680;48.850;2.310;2023-04-16T12:39:59;4.75;4.00;3.00
68698;PMS7003;55680;48.850;2.310;2023-04-16T12:42:24;4.50;4.25;3.00
68698;PMS7003;55680;48.850;2.310;2023-04-16T12:44:50;2.75;2.75;2.00
68698;PMS7003;55680;48.850;2.310;2023-04-16T12:47:15;2.25;2.25;1.00
68698;PMS7003;55680;48.850;2.310;2023-04-16T12:49:41;4.00;2.50;2.00
68698;PMS7003;55680;48.850;2.310;2023-04-16T12:52:06;4.75;3.00;2.00
68698;PMS7003;55680;48.850;2.310;2023-04-16T12:54:32;1.25;1.25;1.00
68698;PMS7003;55680;48.850;2.310;2023-04-16T12:56:57;5.00;3.00;1.75
68698;PMS7003;55680;48.850;2.310;2023-04-16T12:59:22;2.75;2.75;2.00
68698;PMS7003;55680;48.850;2.310;2023-04-16T13:01:48;2.75;2.75;2.00
68698;PMS7003;55680;48.850;2.310;2023-04-16T13:04:13;2.00;2.00;2.00
68698;PMS7003;55680;48.850;2.310;2023-04-16T13:06:39;4.75;2.25;2.00
68698;PMS7003;55680;48.850;2.310;2023-04-16T13:09:04;4.25;4.25;3.00
68698;PMS7003;55680;48.850;2.310;2023-04-16T13:11:30;4.50;3.00;2.25
68698;PMS7003;55680;48.850;2.310;2023-04-16T13:13:56;4.25;2.50;2.25
68698;PMS7003;55680;48.850;2.310;2023-04-16T13:16:22;3.00;3.00;2.00
68698;PMS7003;55680;48.850;2.310;2023-04-16T13:18:47;3.00;3.00;2.00
68698;PMS7003;55680;48.850;2.310;2023-04-16T13:21:13;3.00;1.00;1.00
68698;PMS7003;55680;48.850;2.310;2023-04-16T13:23:38;1.75;1.75;1.00
68698;PMS7003;55680;48.850;2.310;2023-04-16T13:26:04;3.25;3.25;2.00
68698;PMS7003;55680;48.850;2.310;2023-04-16T13:28:29;2.75;2.75;2.50
68698;PMS7003;55680;48.850;2.310;2023-04-16T13:30:55;3.25;3.25;2.00
68698;PMS7003;55680;48.850;2.310;2023-04-16T13:33:20;1.75;1.75;1.75
68698;PMS7003;55680;48.850;2.310;2023-04-16T13:35:46;2.00;2.00;1.00
68698;PMS7003;55680;48.850;2.310;2023-04-16T13:38:12;1.00;1.00;1.00
68698;PMS7003;55680;48.850;2.310;2023-04-16T13:40:38;2.25;2.25;1.25
68698;PMS7003;55680;48.850;2.310;2023-04-16T13:43:03;1.75;1.75;1.00
68698;PMS7003;55680;48.850;2.310;2023-04-16T13:45:29;3.00;2.00;1.75
68698;PMS7003;55680;48.850;2.310;2023-04-16T13:47:54;3.00;2.00;2.00
68698;PMS7003;55680;48.850;2.310;2023-04-16T13:50:20;3.75;3.75;2.00
68698;PMS7003;55680;48.850;2.310;2023-04-16T13:52:45;4.75;4.75;3.00
68698;PMS7003;55680;48.850;2.310;2023-04-16T13:55:11;4.25;2.00;1.00
68698;PMS7003;55680;48.850;2.310;2023-04-16T13:57:38;3.25;3.00;1.00
68698;PMS7003;55680;48.850;2.310;2023-04-16T14:00:06;6.25;4.50;3.00
68698;PMS7003;55680;48.850;2.310;2023-04-16T14:02:33;1.75;1.00;1.00
68698;PMS7003;55680;48.850;2.310;2023-04-16T14:04:59;2.00;2.00;1.00
68698;PMS7003;55680;48.850;2.310;2023-04-16T14:07:24;3.00;2.00;1.25
68698;PMS7003;55680;48.850;2.310;2023-04-16T14:09:51;7.00;4.00;3.00
68698;PMS7003;55680;48.850;2.310;2023-04-16T14:12:17;2.25;2.00;1.25
68698;PMS7003;55680;48.850;2.310;2023-04-16T14:14:42;2.00;2.00;1.00